Time;durP1;ratioP1;P1;durP2;ratioP2;P2;SDS_P1;SDS_P2;PMS_P1;PMS_P2;Temp;Humidity;BMP_temperature;BMP_pressure;BME280_temperature;BME280_humidity;BME280_pressure;Samples;Min_cycle;Max_cycle;Signal;HPM_P1;HPM_P2
2023/05/26 17:41:15;;;;;;;;;;;18.60;66.90;;;;;;5060523;28;19923;-49
2023/05/26 17:43:41;;;;;;;;;;;18.40;66.80;;;;;;5089420;28;19917;-49
2023/05/26 17:46:07;;;;;;;;;;;18.20;66.70;;;;;;5090425;28;20405;-49
2023/05/26 17:48:32;;;;;;;;;;;18.20;68.40;;;;;;5106346;27;20086;-48
2023/05/26 17:50:58;;;;;;;;;;;18.00;67.90;;;;;;5117474;27;19912;-51
2023/05/26 17:53:23;;;;;;;;;;;18.00;68.60;;;;;;5094716;28;19982;-47
2023/05/26 17:55:49;;;;;;;;;;;17.90;68.60;;;;;;5080103;28;19913;-53
2023/05/26 17:58:15;;;;;;;;;;;17.80;69.30;;;;;;4985704;28;20374;-53
2023/05/26 18:00:42;;;;;;;;;;;17.80;68.80;;;;;;4949488;28;1042816;-53
2023/05/26 18:03:08;;;;;;;;;;;17.70;69.20;;;;;;4932380;29;19962;-53
2023/05/26 18:05:33;;;;;;;;;;;17.60;68.80;;;;;;4932893;29;19907;-50
2023/05/26 18:07:59;;;;;;;;;;;17.50;68.50;;;;;;4947046;28;20304;-48
2023/05/26 18:10:24;;;;;;;;;;;17.50;69.50;;;;;;4949558;28;19955;-48
2023/05/26 18:12:50;;;;;;;;;;;17.40;69.60;;;;;;4938032;29;20205;-50
2023/05/26 18:15:16;;;;;;;;;;;17.20;70.10;;;;;;4942533;28;19913;-49
2023/05/26 18:17:41;;;;;;;;;;;17.10;70.50;;;;;;4931497;29;19915;-49
2023/05/26 18:20:07;;;;;;;;;;;17.10;71.00;;;;;;4932083;29;19907;-50
2023/05/26 18:22:35;;;;;;;;;;;17.00;70.90;;;;;;4935050;29;19953;-49
2023/05/26 18:25:00;;;;;;;;;;;16.90;71.70;;;;;;4936527;28;20396;-49
2023/05/26 18:27:25;;;;;;;;;;;16.90;71.70;;;;;;4931210;29;19953;-48
2023/05/26 18:29:51;;;;;;;;;;;16.70;73.50;;;;;;4932235;29;19946;-48
2023/05/26 18:32:17;;;;;;;;;;;16.70;73.00;;;;;;4930781;29;19926;-48
2023/05/26 18:34:43;;;;;;;;;;;16.60;73.20;;;;;;4932122;29;19910;-49
2023/05/26 18:37:08;;;;;;;;;;;16.60;74.40;;;;;;4931693;29;19910;-48
2023/05/26 18:39:34;;;;;;;;;;;16.40;73.80;;;;;;4914099;29;20391;-48
2023/05/26 18:42:01;;;;;;;;;;;16.30;73.60;;;;;;4931290;29;20005;-47
2023/05/26 18:44:26;;;;;;;;;;;16.30;73.60;;;;;;4931905;29;19946;-48
2023/05/26 18:46:52;;;;;;;;;;;16.20;74.20;;;;;;4932481;29;20425;-48
2023/05/26 18:49:17;;;;;;;;;;;16.10;74.70;;;;;;4931758;29;19907;-48
2023/05/26 18:51:43;;;;;;;;;;;16.00;74.40;;;;;;4932022;29;20312;-48
2023/05/26 18:54:08;;;;;;;;;;;15.90;74.40;;;;;;4931945;29;19911;-48
2023/05/26 18:56:34;;;;;;;;;;;15.80;75.50;;;;;;4940114;28;20022;-49
2023/05/26 18:58:59;;;;;;;;;;;15.80;75.80;;;;;;4934579;28;19914;-52
2023/05/26 19:01:25;;;;;;;;;;;15.70;76.90;;;;;;4922121;29;19915;-50
2023/05/26 19:03:51;;;;;;;;;;;15.60;76.50;;;;;;4946895;29;19918;-49
2023/05/26 19:06:16;;;;;;;;;;;15.60;77.80;;;;;;4950872;29;19929;-50
2023/05/26 19:08:42;;;;;;;;;;;15.50;77.90;;;;;;4949287;29;19916;-49
2023/05/26 19:11:07;;;;;;;;;;;15.50;78.10;;;;;;4950262;29;19910;-48
2023/05/26 19:13:33;;;;;;;;;;;15.40;78.00;;;;;;4949784;29;19968;-49
2023/05/26 19:15:58;;;;;;;;;;;15.30;78.40;;;;;;4948988;29;19910;-49
2023/05/26 19:18:23;;;;;;;;;;;15.20;78.20;;;;;;4950268;29;19910;-49
2023/05/26 19:20:49;;;;;;;;;;;15.20;80.10;;;;;;4950395;29;19910;-50
2023/05/26 19:23:14;;;;;;;;;;;15.10;80.40;;;;;;4950632;29;20038;-48
2023/05/26 19:25:41;;;;;;;;;;;15.00;80.40;;;;;;4950473;29;19997;-48
2023/05/26 19:28:06;;;;;;;;;;;15.00;81.30;;;;;;4957893;28;19914;-49
2023/05/26 19:30:32;;;;;;;;;;;14.90;82.40;;;;;;4965590;28;19906;-48
2023/05/26 19:32:57;;;;;;;;;;;14.70;81.80;;;;;;4951008;29;19910;-49
2023/05/26 19:35:23;;;;;;;;;;;14.70;82.50;;;;;;4949521;29;19915;-51
2023/05/26 19:37:48;;;;;;;;;;;14.60;83.10;;;;;;4949033;29;20005;-49
2023/05/26 19:40:13;;;;;;;;;;;14.60;83.50;;;;;;4950599;29;19906;-50
2023/05/26 19:42:39;;;;;;;;;;;14.60;85.20;;;;;;4949397;29;20075;-50
2023/05/26 19:45:05;;;;;;;;;;;14.40;84.00;;;;;;4954101;28;19910;-49
2023/05/26 19:47:30;;;;;;;;;;;14.50;85.20;;;;;;4954181;29;19910;-50
2023/05/26 19:49:57;;;;;;;;;;;14.40;86.30;;;;;;4954296;28;19907;-49
2023/05/26 19:52:23;;;;;;;;;;;14.30;86.30;;;;;;4962239;28;19917;-49
2023/05/26 19:54:48;;;;;;;;;;;14.20;87.50;;;;;;4962863;28;19907;-52
2023/05/26 19:57:14;;;;;;;;;;;14.20;86.70;;;;;;4952370;28;20307;-48
2023/05/26 19:59:39;;;;;;;;;;;14.20;87.90;;;;;;5023820;28;19913;-49
2023/05/26 20:02:05;;;;;;;;;;;14.10;88.20;;;;;;5043869;28;20274;-51
2023/05/26 20:04:30;;;;;;;;;;;14.10;88.50;;;;;;5050850;28;20179;-49
2023/05/26 20:06:56;;;;;;;;;;;14.00;89.50;;;;;;5044493;28;20381;-51
2023/05/26 20:09:21;;;;;;;;;;;14.00;90.60;;;;;;5032012;28;19963;-50
2023/05/26 20:11:47;;;;;;;;;;;13.90;90.60;;;;;;5051812;28;20012;-50
2023/05/26 20:14:12;;;;;;;;;;;13.80;90.50;;;;;;5052110;28;19904;-50
2023/05/26 20:16:38;;;;;;;;;;;13.80;91.20;;;;;;5051847;28;19915;-49
2023/05/26 20:19:03;;;;;;;;;;;13.80;91.30;;;;;;5051467;28;19915;-50
2023/05/26 20:21:28;;;;;;;;;;;13.70;92.10;;;;;;5052033;28;20360;-49
2023/05/26 20:23:54;;;;;;;;;;;13.70;92.30;;;;;;5051825;28;20282;-48
2023/05/26 20:26:21;;;;;;;;;;;13.60;93.10;;;;;;5051373;28;19905;-50
2023/05/26 20:28:47;;;;;;;;;;;13.60;94.20;;;;;;5043285;28;20351;-49
2023/05/26 20:31:16;;;;;;;;;;;13.50;94.50;;;;;;5040533;28;19904;-51
2023/05/26 20:33:43;;;;;;;;;;;13.50;95.90;;;;;;5047004;28;19980;-50
2023/05/26 20:36:09;;;;;;;;;;;13.40;95.10;;;;;;5039884;28;19911;-49
2023/05/26 20:38:36;;;;;;;;;;;13.40;96.00;;;;;;5051259;28;20428;-48
2023/05/26 20:41:01;;;;;;;;;;;13.30;97.90;;;;;;5051363;28;19915;-48
2023/05/26 20:43:26;;;;;;;;;;;13.20;98.60;;;;;;5051409;28;20279;-48
2023/05/26 20:45:53;;;;;;;;;;;13.10;98.50;;;;;;5051250;28;20480;-50
2023/05/26 20:48:19;;;;;;;;;;;13.10;99.90;;;;;;5050776;28;19979;-50
2023/05/26 20:50:46;;;;;;;;;;;13.00;99.90;;;;;;5041028;28;20370;-50
2023/05/26 20:53:12;;;;;;;;;;;13.00;99.90;;;;;;5046533;28;19935;-50
2023/05/26 20:55:37;;;;;;;;;;;12.90;99.90;;;;;;5029956;28;20359;-50
2023/05/26 20:58:02;;;;;;;;;;;12.90;99.90;;;;;;5059079;28;19912;-52
2023/05/26 21:00:28;;;;;;;;;;;12.90;99.90;;;;;;5064662;28;19912;-52
2023/05/26 21:02:53;;;;;;;;;;;12.90;99.90;;;;;;5059104;28;19947;-53
2023/05/26 21:05:19;;;;;;;;;;;12.80;99.90;;;;;;5091148;28;19939;-52
2023/05/26 21:07:45;;;;;;;;;;;12.70;99.90;;;;;;5070995;28;20342;-53
2023/05/26 21:10:11;;;;;;;;;;;12.70;99.90;;;;;;5051547;28;19909;-54
2023/05/26 21:12:40;;;;;;;;;;;12.70;99.90;;;;;;5069829;28;20403;-53
2023/05/26 21:15:09;;;;;;;;;;;12.60;99.90;;;;;;5051291;28;20366;-55
2023/05/26 21:17:34;;;;;;;;;;;12.60;99.90;;;;;;5088832;28;19907;-53
2023/05/26 21:20:00;;;;;;;;;;;12.50;99.90;;;;;;5067980;28;20362;-54
2023/05/26 21:22:27;;;;;;;;;;;12.50;99.90;;;;;;5070377;28;19905;-53
2023/05/26 21:24:52;;;;;;;;;;;12.40;99.90;;;;;;5070692;28;19904;-54
2023/05/26 21:27:18;;;;;;;;;;;12.40;99.90;;;;;;5070629;28;20385;-54
2023/05/26 21:29:44;;;;;;;;;;;12.40;99.90;;;;;;5070279;28;20365;-52
2023/05/26 21:32:09;;;;;;;;;;;12.30;99.90;;;;;;5070643;28;19952;-53
2023/05/26 21:34:35;;;;;;;;;;;12.30;99.90;;;;;;5070514;28;19905;-54
2023/05/26 21:37:01;;;;;;;;;;;12.30;99.90;;;;;;5070430;28;20686;-54
2023/05/26 21:39:27;;;;;;;;;;;12.30;99.90;;;;;;5051799;28;19951;-53
2023/05/26 21:41:52;;;;;;;;;;;12.30;99.90;;;;;;5052103;28;20025;-52
2023/05/26 21:44:18;;;;;;;;;;;12.20;99.90;;;;;;5070515;28;19908;-53
2023/05/26 21:46:43;;;;;;;;;;;12.20;99.90;;;;;;5070649;28;19912;-53
2023/05/26 21:49:12;;;;;;;;;;;12.10;99.90;;;;;;5069288;28;19915;-53
2023/05/26 21:51:37;;;;;;;;;;;12.10;99.90;;;;;;5044357;28;19905;-53
2023/05/26 21:54:04;;;;;;;;;;;12.10;99.90;;;;;;5052057;28;19909;-53
2023/05/26 21:56:29;;;;;;;;;;;12.00;99.90;;;;;;5069659;28;20015;-54
2023/05/26 21:58:55;;;;;;;;;;;11.90;99.90;;;;;;5069566;28;20007;-54
2023/05/26 22:01:20;;;;;;;;;;;11.90;99.90;;;;;;5070008;28;19949;-50
2023/05/26 22:03:46;;;;;;;;;;;11.80;99.90;;;;;;5081930;28;19904;-52
2023/05/26 22:06:11;;;;;;;;;;;11.80;99.90;;;;;;5089819;28;20372;-53
2023/05/26 22:08:37;;;;;;;;;;;11.70;99.90;;;;;;5089641;28;19931;-51
2023/05/26 22:11:02;;;;;;;;;;;11.60;99.90;;;;;;5089655;28;19904;-51
2023/05/26 22:13:28;;;;;;;;;;;11.60;99.90;;;;;;5089713;28;20369;-52
2023/05/26 22:15:53;;;;;;;;;;;11.50;99.90;;;;;;5088470;28;19949;-50
2023/05/26 22:18:19;;;;;;;;;;;11.40;99.90;;;;;;5089268;28;19904;-49
2023/05/26 22:20:44;;;;;;;;;;;11.40;99.90;;;;;;5088433;28;19904;-53
2023/05/26 22:23:10;;;;;;;;;;;11.30;99.90;;;;;;5089814;28;20014;-51
2023/05/26 22:25:35;;;;;;;;;;;11.30;99.90;;;;;;5089770;28;19995;-51
2023/05/26 22:28:01;;;;;;;;;;;11.20;99.90;;;;;;5088174;28;20049;-51
2023/05/26 22:30:26;;;;;;;;;;;11.10;99.90;;;;;;5089739;28;19949;-51
2023/05/26 22:32:52;;;;;;;;;;;11.10;99.90;;;;;;5089628;28;19904;-52
2023/05/26 22:35:18;;;;;;;;;;;11.10;99.90;;;;;;5089574;28;20015;-50
2023/05/26 22:37:43;;;;;;;;;;;11.20;99.90;;;;;;5070823;28;20384;-50
2023/05/26 22:40:09;;;;;;;;;;;11.20;99.90;;;;;;5089101;28;19904;-53
2023/05/26 22:42:35;;;;;;;;;;;11.20;99.90;;;;;;5089655;28;19904;-50
2023/05/26 22:45:00;;;;;;;;;;;11.20;99.90;;;;;;5089457;28;19904;-51
2023/05/26 22:47:26;;;;;;;;;;;11.30;99.90;;;;;;5088789;28;19904;-52
2023/05/26 22:49:51;;;;;;;;;;;11.30;99.90;;;;;;5089526;28;19994;-52
2023/05/26 22:52:17;;;;;;;;;;;11.20;99.90;;;;;;5089341;28;19915;-51
2023/05/26 22:54:42;;;;;;;;;;;11.20;99.90;;;;;;5089367;28;20360;-51
2023/05/26 22:57:08;;;;;;;;;;;11.10;99.90;;;;;;5089007;28;19912;-52
2023/05/26 22:59:33;;;;;;;;;;;11.10;99.90;;;;;;5088901;28;19904;-52
2023/05/26 23:01:59;;;;;;;;;;;11.10;99.90;;;;;;5089519;28;19904;-52
2023/05/26 23:04:24;;;;;;;;;;;11.00;99.90;;;;;;5089189;28;19939;-50
2023/05/26 23:06:50;;;;;;;;;;;11.00;99.90;;;;;;5089438;28;20353;-50
2023/05/26 23:09:15;;;;;;;;;;;10.90;99.90;;;;;;5088723;28;19952;-53
2023/05/26 23:11:41;;;;;;;;;;;10.80;99.90;;;;;;5089128;28;19908;-54
2023/05/26 23:14:07;;;;;;;;;;;10.80;99.90;;;;;;5088973;28;20120;-53
2023/05/26 23:16:32;;;;;;;;;;;10.70;99.90;;;;;;5087391;28;19908;-53
2023/05/26 23:18:58;;;;;;;;;;;10.60;99.90;;;;;;5090195;28;19995;-52
2023/05/26 23:21:24;;;;;;;;;;;10.60;99.90;;;;;;5092980;28;19904;-52
2023/05/26 23:23:49;;;;;;;;;;;10.60;99.90;;;;;;5092883;28;19904;-53
2023/05/26 23:26:15;;;;;;;;;;;10.50;99.90;;;;;;5092957;28;19926;-53
2023/05/26 23:28:40;;;;;;;;;;;10.50;99.90;;;;;;5092765;28;19911;-53
2023/05/26 23:31:06;;;;;;;;;;;10.50;99.90;;;;;;5093300;28;19965;-54
2023/05/26 23:33:32;;;;;;;;;;;10.40;99.90;;;;;;5074897;28;19977;-53
2023/05/26 23:35:57;;;;;;;;;;;10.40;99.90;;;;;;5086296;28;19909;-52
2023/05/26 23:38:23;;;;;;;;;;;10.40;99.90;;;;;;5090710;28;19908;-52
2023/05/26 23:40:48;;;;;;;;;;;10.40;99.90;;;;;;5092873;28;19918;-53
2023/05/26 23:43:14;;;;;;;;;;;10.30;99.90;;;;;;5092798;28;19911;-53
2023/05/26 23:45:39;;;;;;;;;;;10.30;99.90;;;;;;5092594;28;19911;-53
2023/05/26 23:48:05;;;;;;;;;;;10.30;99.90;;;;;;5092141;28;19904;-53
2023/05/26 23:50:31;;;;;;;;;;;10.30;99.90;;;;;;5092763;28;19904;-50
2023/05/26 23:52:56;;;;;;;;;;;10.20;99.90;;;;;;5092507;28;20016;-53
2023/05/26 23:55:21;;;;;;;;;;;10.20;99.90;;;;;;5092738;28;20394;-53
2023/05/26 23:57:47;;;;;;;;;;;10.20;99.90;;;;;;5091867;28;20397;-53
